Time;durP1;ratioP1;P1;durP2;ratioP2;P2;SDS_P1;SDS_P2;PMS_P1;PMS_P2;Temp;Humidity;BMP_temperature;BMP_pressure;BME280_temperature;BME280_humidity;BME280_pressure;Samples;Min_cycle;Max_cycle;Signal;HPM_P1;HPM_P2
2022/08/03 00:00:38;;;;;;;9.25;2.30;;;;;;;;;;5075061;28;20039;-65
2022/08/03 00:03:04;;;;;;;5.07;2.50;;;;;;;;;;5075162;28;20036;-64
2022/08/03 00:05:31;;;;;;;8.18;2.42;;;;;;;;;;5075070;28;20025;-65
2022/08/03 00:07:57;;;;;;;10.93;2.85;;;;;;;;;;5075009;28;20078;-65
2022/08/03 00:10:23;;;;;;;10.75;2.55;;;;;;;;;;5075011;28;20041;-65
2022/08/03 00:12:49;;;;;;;8.88;2.33;;;;;;;;;;5074723;28;20382;-65
2022/08/03 00:15:15;;;;;;;6.50;2.42;;;;;;;;;;5074804;28;20107;-65
2022/08/03 00:17:41;;;;;;;7.57;2.92;;;;;;;;;;5074441;28;20131;-65
2022/08/03 00:20:07;;;;;;;8.20;2.25;;;;;;;;;;5074601;28;20037;-65
2022/08/03 00:22:34;;;;;;;7.30;2.72;;;;;;;;;;5086412;28;20066;-64
2022/08/03 00:24:59;;;;;;;7.35;2.50;;;;;;;;;;5094828;28;20522;-65
2022/08/03 00:27:25;;;;;;;7.22;2.50;;;;;;;;;;5094776;28;20032;-65
2022/08/03 00:29:50;;;;;;;9.25;2.40;;;;;;;;;;5094848;28;20028;-65
2022/08/03 00:32:16;;;;;;;6.85;2.42;;;;;;;;;;5094453;28;20020;-65
2022/08/03 00:34:41;;;;;;;8.32;2.30;;;;;;;;;;5094568;28;20469;-65
2022/08/03 00:37:07;;;;;;;8.25;2.20;;;;;;;;;;5093189;28;20032;-65
2022/08/03 00:39:32;;;;;;;13.48;2.80;;;;;;;;;;5094571;28;20060;-65
2022/08/03 00:42:02;;;;;;;6.75;2.22;;;;;;;;;;5094418;28;20426;-66
2022/08/03 00:44:28;;;;;;;10.23;2.17;;;;;;;;;;5094636;28;20028;-64
2022/08/03 00:46:53;;;;;;;10.52;2.70;;;;;;;;;;5094222;28;20032;-65
2022/08/03 00:49:19;;;;;;;7.97;2.60;;;;;;;;;;5094321;28;20023;-65
2022/08/03 00:51:45;;;;;;;10.48;3.30;;;;;;;;;;5094335;28;20016;-64
2022/08/03 00:54:10;;;;;;;7.45;2.40;;;;;;;;;;5094209;28;20024;-65
2022/08/03 00:56:36;;;;;;;8.63;2.70;;;;;;;;;;5094087;28;20023;-65
2022/08/03 00:59:03;;;;;;;4.47;2.53;;;;;;;;;;5094159;28;20439;-65
2022/08/03 01:01:28;;;;;;;9.07;2.60;;;;;;;;;;5093972;28;20028;-65
2022/08/03 01:03:54;;;;;;;10.77;2.53;;;;;;;;;;5094087;28;20093;-65
2022/08/03 01:06:31;;;;;;;7.00;2.60;;;;;;;;;;5094111;28;20040;-65
2022/08/03 01:09:05;;;;;;;10.48;2.88;;;;;;;;;;5094113;28;20085;-65
2022/08/03 01:11:48;;;;;;;11.70;3.15;;;;;;;;;;5093861;28;20477;-65
2022/08/03 01:14:24;;;;;;;6.30;3.05;;;;;;;;;;5093906;28;20035;-65
2022/08/03 01:17:06;;;;;;;10.15;3.30;;;;;;;;;;5093543;28;20023;-65
2022/08/03 01:19:55;;;;;;;7.70;3.50;;;;;;;;;;5093911;28;20016;-65
2022/08/03 01:22:48;;;;;;;8.95;3.10;;;;;;;;;;5093412;28;20036;-65
2022/08/03 01:25:38;;;;;;;9.13;3.15;;;;;;;;;;5093665;28;20352;-65
2022/08/03 01:28:22;;;;;;;11.02;3.25;;;;;;;;;;5093562;28;20538;-64
2022/08/03 01:30:49;;;;;;;8.25;3.45;;;;;;;;;;5093203;28;20035;-65
2022/08/03 01:33:19;;;;;;;8.65;3.55;;;;;;;;;;5092775;28;20111;-64
2022/08/03 01:35:51;;;;;;;9.68;3.38;;;;;;;;;;5093551;28;20028;-65
2022/08/03 01:38:27;;;;;;;9.10;4.03;;;;;;;;;;5093333;28;20423;-65
2022/08/03 01:40:54;;;;;;;8.95;3.47;;;;;;;;;;5092393;28;20042;-65
2022/08/03 01:43:26;;;;;;;12.85;3.88;;;;;;;;;;5093360;28;20107;-65
2022/08/03 01:45:54;;;;;;;12.60;3.80;;;;;;;;;;5093264;28;20028;-64
2022/08/03 01:48:20;;;;;;;11.13;3.83;;;;;;;;;;5093382;28;20021;-68
2022/08/03 01:50:48;;;;;;;11.57;3.65;;;;;;;;;;5093212;28;20574;-65
2022/08/03 01:53:15;;;;;;;10.95;3.60;;;;;;;;;;5093220;28;20481;-64
2022/08/03 01:55:44;;;;;;;10.13;3.10;;;;;;;;;;5093123;28;20114;-65
2022/08/03 01:58:13;;;;;;;8.93;3.40;;;;;;;;;;5093068;28;20024;-64
2022/08/03 02:00:41;;;;;;;9.45;3.55;;;;;;;;;;5093068;28;20477;-65
2022/08/03 02:03:08;;;;;;;11.25;3.65;;;;;;;;;;5093157;28;20028;-65
2022/08/03 02:05:35;;;;;;;12.73;3.17;;;;;;;;;;5093081;28;20501;-64
2022/08/03 02:08:03;;;;;;;12.43;3.00;;;;;;;;;;5093153;28;20027;-64
2022/08/03 02:10:32;;;;;;;9.10;3.28;;;;;;;;;;5093062;28;20032;-64
2022/08/03 02:13:01;;;;;;;8.68;2.80;;;;;;;;;;5092861;28;20020;-65
2022/08/03 02:15:28;;;;;;;9.68;2.80;;;;;;;;;;5092976;28;20043;-65
2022/08/03 02:17:56;;;;;;;8.18;2.38;;;;;;;;;;5092799;28;20111;-65
2022/08/03 02:20:23;;;;;;;10.10;2.78;;;;;;;;;;5092826;28;20032;-65
2022/08/03 02:22:49;;;;;;;12.05;2.60;;;;;;;;;;5092620;28;20051;-65
2022/08/03 02:25:15;;;;;;;7.28;2.30;;;;;;;;;;5092849;28;20024;-65
2022/08/03 02:27:57;;;;;;;7.50;2.72;;;;;;;;;;5092703;28;20035;-65
2022/08/03 02:30:32;;;;;;;5.72;2.72;;;;;;;;;;5092735;28;20596;-65
2022/08/03 02:32:58;;;;;;;9.13;2.50;;;;;;;;;;5092658;28;20020;-65
2022/08/03 02:35:28;;;;;;;6.90;2.65;;;;;;;;;;5092701;28;20028;-65
2022/08/03 02:37:58;;;;;;;8.23;2.13;;;;;;;;;;5092652;28;20036;-65
2022/08/03 02:40:27;;;;;;;8.73;2.08;;;;;;;;;;5092675;28;20043;-65
2022/08/03 02:42:56;;;;;;;7.45;2.22;;;;;;;;;;5092260;28;20055;-65
2022/08/03 02:45:25;;;;;;;10.77;2.40;;;;;;;;;;5094710;28;20027;-65
2022/08/03 02:47:55;;;;;;;9.18;2.40;;;;;;;;;;5096761;28;20035;-64
2022/08/03 02:50:23;;;;;;;14.95;2.42;;;;;;;;;;5096825;28;20118;-65
2022/08/03 02:52:50;;;;;;;8.63;2.13;;;;;;;;;;5096404;28;20032;-65
2022/08/03 02:55:18;;;;;;;12.85;2.88;;;;;;;;;;5096473;28;20059;-65
2022/08/03 02:57:46;;;;;;;10.25;2.50;;;;;;;;;;5096408;28;20059;-65
2022/08/03 03:00:12;;;;;;;7.47;2.47;;;;;;;;;;5096388;28;20093;-64
2022/08/03 03:02:39;;;;;;;9.63;2.35;;;;;;;;;;5096539;28;20393;-65
2022/08/03 03:05:06;;;;;;;6.82;2.85;;;;;;;;;;5096395;28;20442;-64
2022/08/03 03:07:33;;;;;;;8.25;2.92;;;;;;;;;;5096350;28;20049;-64
2022/08/03 03:10:00;;;;;;;8.27;3.63;;;;;;;;;;5096447;28;20024;-63
2022/08/03 03:12:27;;;;;;;8.68;3.03;;;;;;;;;;5096101;28;20020;-63
2022/08/03 03:14:52;;;;;;;7.07;2.95;;;;;;;;;;5096324;28;20381;-64
2022/08/03 03:17:19;;;;;;;11.18;2.60;;;;;;;;;;5096096;28;20038;-64
2022/08/03 03:19:46;;;;;;;9.38;2.80;;;;;;;;;;5096002;28;20052;-64
2022/08/03 03:22:13;;;;;;;9.43;2.45;;;;;;;;;;5095764;28;20051;-63
2022/08/03 03:24:41;;;;;;;9.93;2.97;;;;;;;;;;5096164;28;20047;-64
2022/08/03 03:27:07;;;;;;;8.93;2.90;;;;;;;;;;5095905;28;20055;-64
2022/08/03 03:29:33;;;;;;;13.88;2.80;;;;;;;;;;5096135;28;20020;-63
2022/08/03 03:32:00;;;;;;;10.25;2.83;;;;;;;;;;5095915;28;20532;-63
2022/08/03 03:34:28;;;;;;;14.23;3.47;;;;;;;;;;5096248;28;20020;-65
2022/08/03 03:36:53;;;;;;;12.70;3.28;;;;;;;;;;5095791;28;20064;-62
2022/08/03 03:39:19;;;;;;;15.40;3.50;;;;;;;;;;5095762;28;20099;-63
2022/08/03 03:41:45;;;;;;;19.80;4.20;;;;;;;;;;5095570;28;20030;-64
2022/08/03 03:44:10;;;;;;;10.85;3.47;;;;;;;;;;5095843;28;20020;-63
2022/08/03 03:46:37;;;;;;;18.30;4.18;;;;;;;;;;5095831;28;20024;-63
2022/08/03 03:49:05;;;;;;;16.55;4.07;;;;;;;;;;5095723;28;20472;-63
2022/08/03 03:51:31;;;;;;;16.98;3.83;;;;;;;;;;5095507;28;20488;-64
2022/08/03 03:53:58;;;;;;;16.60;3.60;;;;;;;;;;5095628;28;20020;-63
2022/08/03 03:56:24;;;;;;;15.40;3.83;;;;;;;;;;5094467;28;20028;-64
2022/08/03 03:58:50;;;;;;;20.60;4.05;;;;;;;;;;5095430;28;20035;-64
2022/08/03 04:01:16;;;;;;;12.27;3.03;;;;;;;;;;5095380;28;20126;-63
2022/08/03 04:03:41;;;;;;;12.45;3.10;;;;;;;;;;5095413;28;20032;-63
2022/08/03 04:11:50;;;;;;;7.40;2.65;;;;;;;;;;5052664;28;20482;-63
2022/08/03 04:14:25;;;;;;;13.60;2.95;;;;;;;;;;5052536;28;20024;-63
2022/08/03 04:16:58;;;;;;;10.88;4.05;;;;;;;;;;5035814;28;20040;-63
2022/08/03 04:19:29;;;;;;;11.68;3.90;;;;;;;;;;5052519;28;20449;-64
2022/08/03 04:21:59;;;;;;;12.65;3.20;;;;;;;;;;5052205;28;20048;-64
2022/08/03 04:24:48;;;;;;;12.35;3.30;;;;;;;;;;5052406;28;20033;-63
2022/08/03 04:27:19;;;;;;;14.10;3.90;;;;;;;;;;5052757;28;20456;-65
2022/08/03 04:29:46;;;;;;;13.43;4.03;;;;;;;;;;5052453;28;20548;-64
2022/08/03 04:32:13;;;;;;;9.73;3.17;;;;;;;;;;5052420;28;20597;-65
2022/08/03 04:34:39;;;;;;;17.20;3.92;;;;;;;;;;5052436;28;20025;-64
2022/08/03 04:37:10;;;;;;;9.32;2.92;;;;;;;;;;5052266;28;20386;-65
2022/08/03 04:39:40;;;;;;;13.38;3.65;;;;;;;;;;5052080;28;20029;-63
2022/08/03 04:42:07;;;;;;;14.75;3.55;;;;;;;;;;5052154;28;20098;-63
2022/08/03 04:44:41;;;;;;;10.02;2.97;;;;;;;;;;5052174;28;20037;-63
2022/08/03 04:47:07;;;;;;;9.52;2.80;;;;;;;;;;5051946;28;20513;-65
2022/08/03 04:49:36;;;;;;;10.30;2.95;;;;;;;;;;5092036;28;20496;-63
2022/08/03 04:52:02;;;;;;;9.32;2.85;;;;;;;;;;5094288;28;20027;-64
2022/08/03 04:54:27;;;;;;;9.07;2.90;;;;;;;;;;5094144;28;20020;-63
2022/08/03 04:56:53;;;;;;;5.90;2.45;;;;;;;;;;5094188;28;20426;-64
2022/08/03 04:59:19;;;;;;;8.45;2.33;;;;;;;;;;5093895;28;20024;-63
2022/08/03 05:01:44;;;;;;;10.38;2.67;;;;;;;;;;5092955;28;20073;-65
2022/08/03 05:04:10;;;;;;;8.43;2.70;;;;;;;;;;5094154;28;20116;-64
2022/08/03 05:06:35;;;;;;;7.80;2.72;;;;;;;;;;5094023;28;20061;-64
2022/08/03 05:09:01;;;;;;;8.05;2.60;;;;;;;;;;5092733;28;20028;-64
2022/08/03 05:11:27;;;;;;;7.00;2.53;;;;;;;;;;5093644;28;20035;-64
2022/08/03 05:13:53;;;;;;;9.43;2.60;;;;;;;;;;5094046;28;20036;-63
2022/08/03 05:16:19;;;;;;;9.18;2.70;;;;;;;;;;5093770;28;20458;-64
2022/08/03 05:18:44;;;;;;;5.93;2.60;;;;;;;;;;5093874;28;20028;-65
2022/08/03 05:21:12;;;;;;;12.75;2.50;;;;;;;;;;5093124;28;20104;-64
2022/08/03 05:23:38;;;;;;;5.28;2.15;;;;;;;;;;5093631;28;20477;-64
2022/08/03 05:26:04;;;;;;;8.60;2.40;;;;;;;;;;5093728;28;20027;-63
2022/08/03 05:28:29;;;;;;;9.05;2.72;;;;;;;;;;5093549;28;20377;-64
2022/08/03 05:30:55;;;;;;;10.23;2.75;;;;;;;;;;5093377;28;20021;-63
2022/08/03 05:33:20;;;;;;;11.05;2.88;;;;;;;;;;5093538;28;20457;-64
2022/08/03 05:35:46;;;;;;;7.00;2.90;;;;;;;;;;5093278;28;20418;-64
2022/08/03 05:38:12;;;;;;;8.73;2.40;;;;;;;;;;5093321;28;20476;-63
2022/08/03 05:40:37;;;;;;;7.05;2.20;;;;;;;;;;5093396;28;20028;-64
2022/08/03 05:43:03;;;;;;;8.63;2.58;;;;;;;;;;5093284;28;20024;-64
2022/08/03 05:45:28;;;;;;;10.05;2.67;;;;;;;;;;5093137;28;20081;-64
2022/08/03 05:47:54;;;;;;;12.80;2.50;;;;;;;;;;5093210;28;20115;-63
2022/08/03 05:50:20;;;;;;;5.45;2.30;;;;;;;;;;5092903;28;20027;-64
2022/08/03 05:52:46;;;;;;;5.88;2.20;;;;;;;;;;5093216;28;20028;-64
2022/08/03 05:55:12;;;;;;;7.25;2.13;;;;;;;;;;5093102;28;20081;-65
2022/08/03 05:57:38;;;;;;;9.63;2.58;;;;;;;;;;5093247;28;20031;-64
2022/08/03 06:00:07;;;;;;;6.85;2.30;;;;;;;;;;5093217;28;20028;-64
2022/08/03 06:02:32;;;;;;;8.00;2.15;;;;;;;;;;5092983;28;20451;-63
2022/08/03 06:04:58;;;;;;;4.90;2.10;;;;;;;;;;5092728;28;20103;-63
2022/08/03 06:07:23;;;;;;;6.35;2.05;;;;;;;;;;5092879;28;20090;-64
2022/08/03 06:09:49;;;;;;;4.68;2.03;;;;;;;;;;5093032;28;20024;-64
2022/08/03 06:12:15;;;;;;;9.25;1.98;;;;;;;;;;5092805;28;20081;-64
2022/08/03 06:14:40;;;;;;;8.50;2.40;;;;;;;;;;5092970;28;20028;-65
2022/08/03 06:17:06;;;;;;;4.97;2.08;;;;;;;;;;5092800;28;20028;-63
2022/08/03 06:19:32;;;;;;;6.13;2.15;;;;;;;;;;5092012;28;20020;-64
2022/08/03 06:21:57;;;;;;;7.55;1.95;;;;;;;;;;5092329;28;20513;-65
2022/08/03 06:24:23;;;;;;;10.07;2.15;;;;;;;;;;5092800;28;20024;-65
2022/08/03 06:26:48;;;;;;;5.45;2.00;;;;;;;;;;5092658;28;20053;-64
2022/08/03 06:29:14;;;;;;;8.07;2.22;;;;;;;;;;5092760;28;20020;-64
2022/08/03 06:31:39;;;;;;;8.30;2.15;;;;;;;;;;5092867;28;20027;-66
2022/08/03 06:34:05;;;;;;;7.50;2.20;;;;;;;;;;5092388;28;20020;-67
2022/08/03 06:36:31;;;;;;;6.20;1.80;;;;;;;;;;5092607;28;20403;-63
2022/08/03 06:38:58;;;;;;;11.48;2.20;;;;;;;;;;5092583;28;20032;-65
2022/08/03 06:41:24;;;;;;;9.63;2.20;;;;;;;;;;5092559;28;20023;-65
2022/08/03 06:43:49;;;;;;;5.85;2.15;;;;;;;;;;5092580;28;20028;-66
2022/08/03 06:46:15;;;;;;;3.95;2.03;;;;;;;;;;5092330;28;20069;-66
2022/08/03 06:48:41;;;;;;;4.78;1.88;;;;;;;;;;5092297;28;20108;-66
2022/08/03 06:51:07;;;;;;;6.38;2.20;;;;;;;;;;5092565;28;20146;-66
2022/08/03 06:53:33;;;;;;;5.60;2.00;;;;;;;;;;5092601;28;20035;-67
2022/08/03 06:55:58;;;;;;;6.43;2.20;;;;;;;;;;5092581;28;20020;-67
2022/08/03 06:58:24;;;;;;;11.82;2.17;;;;;;;;;;5092486;28;20017;-67
2022/08/03 07:00:49;;;;;;;6.97;1.95;;;;;;;;;;5089711;28;20020;-64
2022/08/03 07:03:15;;;;;;;5.80;2.15;;;;;;;;;;5071733;28;20389;-67
2022/08/03 07:05:42;;;;;;;7.05;2.17;;;;;;;;;;5069186;28;20170;-66
2022/08/03 07:08:08;;;;;;;5.68;2.30;;;;;;;;;;5062649;28;20040;-67
2022/08/03 07:10:34;;;;;;;6.13;1.95;;;;;;;;;;5056012;28;20033;-63
2022/08/03 07:12:59;;;;;;;12.80;2.47;;;;;;;;;;5059968;28;20068;-66
2022/08/03 07:15:25;;;;;;;8.38;2.20;;;;;;;;;;5058890;28;20492;-64
2022/08/03 07:17:50;;;;;;;6.47;2.22;;;;;;;;;;5058853;28;20493;-64
2022/08/03 07:20:17;;;;;;;6.38;2.20;;;;;;;;;;5059807;28;20028;-65
2022/08/03 07:22:43;;;;;;;9.07;2.50;;;;;;;;;;5064997;28;20072;-63
2022/08/03 07:25:09;;;;;;;8.80;2.33;;;;;;;;;;5053676;28;20162;-63
2022/08/03 07:27:35;;;;;;;4.45;1.83;;;;;;;;;;5064602;28;20016;-63
2022/08/03 07:30:04;;;;;;;8.60;2.20;;;;;;;;;;5053488;28;20390;-66
2022/08/03 07:32:30;;;;;;;4.32;1.80;;;;;;;;;;5058167;28;20143;-64
2022/08/03 07:34:56;;;;;;;8.65;2.05;;;;;;;;;;5060606;28;20111;-62
2022/08/03 07:37:21;;;;;;;5.15;1.60;;;;;;;;;;5055106;28;20030;-66
2022/08/03 07:39:47;;;;;;;6.82;1.98;;;;;;;;;;5058391;28;20047;-64
2022/08/03 07:42:13;;;;;;;5.13;2.22;;;;;;;;;;5063656;28;20452;-62
2022/08/03 07:44:39;;;;;;;6.68;2.08;;;;;;;;;;5057421;28;20024;-63
2022/08/03 07:47:05;;;;;;;6.03;2.15;;;;;;;;;;5072663;28;20054;-62
2022/08/03 07:49:31;;;;;;;3.67;1.70;;;;;;;;;;5072094;28;20036;-63
2022/08/03 07:54:41;;;;;;;4.60;1.90;;;;;;;;;;5056680;28;20032;-62
2022/08/03 07:57:06;;;;;;;5.40;1.70;;;;;;;;;;5060066;28;20470;-64
2022/08/03 07:59:34;;;;;;;5.50;1.80;;;;;;;;;;5063981;28;20205;-64
2022/08/03 08:01:59;;;;;;;5.70;1.90;;;;;;;;;;5059381;28;20021;-62
2022/08/03 08:04:25;;;;;;;3.25;1.50;;;;;;;;;;5064021;28;20027;-62
2022/08/03 08:06:50;;;;;;;7.00;1.77;;;;;;;;;;5059769;28;20481;-62
2022/08/03 08:09:16;;;;;;;6.95;1.83;;;;;;;;;;5059286;28;20086;-62
2022/08/03 08:11:42;;;;;;;14.00;2.10;;;;;;;;;;5072045;28;20032;-62
2022/08/03 08:14:08;;;;;;;6.25;1.92;;;;;;;;;;5064288;28;20032;-62
2022/08/03 08:16:34;;;;;;;12.15;2.20;;;;;;;;;;5056312;28;20478;-63
2022/08/03 08:19:00;;;;;;;12.88;2.15;;;;;;;;;;5058533;28;20032;-62
2022/08/03 08:21:26;;;;;;;5.88;1.73;;;;;;;;;;5067320;28;20040;-62
2022/08/03 08:23:52;;;;;;;3.47;1.40;;;;;;;;;;5067849;28;20021;-62
2022/08/03 08:26:17;;;;;;;5.88;1.60;;;;;;;;;;5062935;28;20385;-63
2022/08/03 08:28:43;;;;;;;4.93;1.75;;;;;;;;;;5067567;28;20029;-63
2022/08/03 08:31:08;;;;;;;4.72;1.48;;;;;;;;;;5055533;28;20440;-62
2022/08/03 08:33:34;;;;;;;5.57;1.70;;;;;;;;;;5059834;28;20403;-62
2022/08/03 08:36:00;;;;;;;4.82;1.60;;;;;;;;;;5073886;28;20476;-63
2022/08/03 08:38:26;;;;;;;5.88;1.60;;;;;;;;;;5074045;28;20063;-63
2022/08/03 08:40:54;;;;;;;7.88;1.70;;;;;;;;;;5073850;28;20028;-62
2022/08/03 08:43:20;;;;;;;5.83;1.60;;;;;;;;;;5073688;28;20031;-64
2022/08/03 08:45:49;;;;;;;4.43;1.52;;;;;;;;;;5073591;28;20726;-63
2022/08/03 08:48:16;;;;;;;5.07;1.38;;;;;;;;;;5073744;28;20483;-63
2022/08/03 08:50:43;;;;;;;3.17;1.40;;;;;;;;;;5073682;28;20030;-62
2022/08/03 08:53:12;;;;;;;4.13;1.52;;;;;;;;;;5073838;28;20016;-64
2022/08/03 08:55:38;;;;;;;4.95;1.40;;;;;;;;;;5073573;28;20032;-63
2022/08/03 08:58:05;;;;;;;2.80;1.25;;;;;;;;;;5073574;28;20032;-63
2022/08/03 09:00:31;;;;;;;4.80;1.48;;;;;;;;;;5073241;28;20473;-63
2022/08/03 09:02:57;;;;;;;3.30;1.30;;;;;;;;;;5073231;28;20082;-62
2022/08/03 09:05:23;;;;;;;5.68;1.38;;;;;;;;;;5073305;28;20474;-62
2022/08/03 09:07:49;;;;;;;5.85;1.63;;;;;;;;;;5073140;28;20108;-62
2022/08/03 09:10:20;;;;;;;5.80;1.38;;;;;;;;;;5073429;28;20114;-62
2022/08/03 09:12:49;;;;;;;2.28;1.25;;;;;;;;;;5073606;28;20032;-61
2022/08/03 09:15:15;;;;;;;2.53;1.27;;;;;;;;;;5073177;28;20016;-62
2022/08/03 09:17:41;;;;;;;3.80;1.40;;;;;;;;;;5073259;28;20032;-62
2022/08/03 09:20:08;;;;;;;3.28;1.60;;;;;;;;;;5073247;28;20024;-61
2022/08/03 09:22:34;;;;;;;5.25;1.50;;;;;;;;;;5085516;28;20099;-62
2022/08/03 09:25:11;;;;;;;4.38;1.55;;;;;;;;;;5093270;28;20131;-62
2022/08/03 09:27:45;;;;;;;4.32;1.50;;;;;;;;;;5093205;28;20056;-64
2022/08/03 09:30:15;;;;;;;4.45;1.63;;;;;;;;;;5093286;28;20115;-63
2022/08/03 09:32:43;;;;;;;8.07;1.80;;;;;;;;;;5093279;28;20020;-62
2022/08/03 09:35:10;;;;;;;3.83;1.33;;;;;;;;;;5093338;28;20137;-62
2022/08/03 09:37:35;;;;;;;6.82;1.45;;;;;;;;;;5093474;28;20040;-62
2022/08/03 09:40:01;;;;;;;4.82;1.42;;;;;;;;;;5093316;28;20473;-62
2022/08/03 09:42:27;;;;;;;3.95;1.40;;;;;;;;;;5093043;28;20030;-62
2022/08/03 09:44:53;;;;;;;9.98;1.70;;;;;;;;;;5093115;28;20024;-62
2022/08/03 09:47:35;;;;;;;2.35;1.30;;;;;;;;;;5093060;28;20162;-61
2022/08/03 09:50:02;;;;;;;3.47;1.70;;;;;;;;;;5093082;28;20377;-62
2022/08/03 09:52:38;;;;;;;3.88;1.40;;;;;;;;;;5093512;28;20031;-62
2022/08/03 09:55:09;;;;;;;7.13;1.58;;;;;;;;;;5092498;28;20444;-62
2022/08/03 09:57:35;;;;;;;4.18;1.30;;;;;;;;;;5092543;28;20385;-62
2022/08/03 10:00:19;;;;;;;2.92;1.50;;;;;;;;;;5092862;28;20016;-61
2022/08/03 10:02:44;;;;;;;3.60;1.40;;;;;;;;;;5092886;28;20043;-62
2022/08/03 10:05:12;;;;;;;5.78;1.52;;;;;;;;;;5092776;28;20028;-62
2022/08/03 10:07:43;;;;;;;4.88;1.60;;;;;;;;;;5092684;28;20034;-62
2022/08/03 10:10:09;;;;;;;3.40;1.15;;;;;;;;;;5092667;28;20020;-62
2022/08/03 10:12:35;;;;;;;5.40;1.40;;;;;;;;;;5092651;28;20024;-62
2022/08/03 10:15:01;;;;;;;3.65;1.50;;;;;;;;;;5092523;28;20050;-63
2022/08/03 10:17:27;;;;;;;2.97;1.50;;;;;;;;;;5092446;28;20465;-62
2022/08/03 10:19:52;;;;;;;2.22;1.40;;;;;;;;;;5092448;28;20020;-63
2022/08/03 10:22:22;;;;;;;2.25;1.40;;;;;;;;;;5092642;28;20109;-62
2022/08/03 10:25:09;;;;;;;3.45;1.40;;;;;;;;;;5092588;28;20385;-62
2022/08/03 10:27:40;;;;;;;2.95;1.50;;;;;;;;;;5092210;28;20567;-62
2022/08/03 10:30:10;;;;;;;4.03;1.55;;;;;;;;;;5092110;28;20111;-63
2022/08/03 10:32:51;;;;;;;2.45;1.50;;;;;;;;;;5077270;28;20021;-61
2022/08/03 10:35:19;;;;;;;2.35;1.50;;;;;;;;;;5051917;28;20029;-62
2022/08/03 10:38:13;;;;;;;2.13;1.40;;;;;;;;;;5052038;28;20104;-61
2022/08/03 10:40:39;;;;;;;2.67;1.42;;;;;;;;;;5050137;28;20037;-62
2022/08/03 10:43:10;;;;;;;1.83;1.40;;;;;;;;;;5052165;28;20097;-62
2022/08/03 10:45:40;;;;;;;4.28;1.40;;;;;;;;;;5052069;28;20040;-61
2022/08/03 10:48:07;;;;;;;3.05;1.67;;;;;;;;;;5052277;28;20063;-62
2022/08/03 10:50:33;;;;;;;6.90;1.70;;;;;;;;;;5052069;28;20029;-61
2022/08/03 10:53:07;;;;;;;4.22;1.60;;;;;;;;;;5052110;28;20017;-62
2022/08/03 10:58:50;;;;;;;2.97;1.27;;;;;;;;;;5052308;28;20040;-64
2022/08/03 11:01:17;;;;;;;2.65;1.17;;;;;;;;;;5047541;28;20048;-62
2022/08/03 11:03:52;;;;;;;4.82;1.65;;;;;;;;;;5050796;28;20090;-62
2022/08/03 11:06:19;;;;;;;3.50;1.45;;;;;;;;;;5053702;28;20037;-62
2022/08/03 11:08:45;;;;;;;4.25;1.80;;;;;;;;;;5055708;28;20074;-61
2022/08/03 11:11:17;;;;;;;2.65;1.70;;;;;;;;;;5055707;28;20025;-62
2022/08/03 11:14:10;;;;;;;3.85;1.42;;;;;;;;;;5055746;28;20032;-62
2022/08/03 11:17:06;;;;;;;2.30;1.38;;;;;;;;;;5055981;28;20025;-62
2022/08/03 11:19:45;;;;;;;4.70;1.40;;;;;;;;;;5054753;28;20033;-62
2022/08/03 11:22:11;;;;;;;;;;;;;;;;;;5074540;28;20477;-61
2022/08/03 11:24:39;;;;;;;4.05;1.67;;;;;;;;;;5095746;28;19973;-62
2022/08/03 11:27:16;;;;;;;2.40;1.58;;;;;;;;;;5095751;28;20043;-62
2022/08/03 11:30:02;;;;;;;2.97;1.60;;;;;;;;;;5095759;28;20028;-62
2022/08/03 11:32:37;;;;;;;3.20;1.40;;;;;;;;;;5090886;28;20058;-61
2022/08/03 11:35:09;;;;;;;5.22;1.60;;;;;;;;;;5073822;28;20031;-64
2022/08/03 11:37:35;;;;;;;5.85;1.40;;;;;;;;;;5072960;28;20562;-64
2022/08/03 11:40:01;;;;;;;2.70;1.40;;;;;;;;;;5074907;28;20491;-64
2022/08/03 11:42:27;;;;;;;3.20;1.40;;;;;;;;;;5075346;28;20050;-63
2022/08/03 11:44:59;;;;;;;6.15;1.77;;;;;;;;;;5064822;28;20028;-64
2022/08/03 11:47:27;;;;;;;3.88;1.55;;;;;;;;;;5075121;28;20078;-62
2022/08/03 11:49:57;;;;;;;3.08;1.35;;;;;;;;;;5075005;28;20024;-64
2022/08/03 11:52:23;;;;;;;4.45;1.40;;;;;;;;;;5074816;28;20099;-63
2022/08/03 11:54:53;;;;;;;4.03;1.70;;;;;;;;;;5074558;28;20021;-63
2022/08/03 11:57:30;;;;;;;5.20;1.27;;;;;;;;;;5074786;28;20036;-64
2022/08/03 11:59:55;;;;;;;3.50;1.55;;;;;;;;;;5074717;28;20025;-63
2022/08/03 12:02:21;;;;;;;4.90;1.30;;;;;;;;;;5074748;28;20124;-64
2022/08/03 12:04:57;;;;;;;3.67;1.50;;;;;;;;;;5074544;28;20024;-64
2022/08/03 12:07:23;;;;;;;2.35;1.10;;;;;;;;;;5074455;28;20020;-64
2022/08/03 12:10:09;;;;;;;4.82;1.30;;;;;;;;;;5074560;28;20031;-65
2022/08/03 12:12:35;;;;;;;3.22;1.27;;;;;;;;;;5074644;28;20492;-64
2022/08/03 12:15:03;;;;;;;2.17;1.20;;;;;;;;;;5074440;28;20473;-64
2022/08/03 12:17:39;;;;;;;5.30;1.40;;;;;;;;;;5073582;28;20115;-64
2022/08/03 12:20:08;;;;;;;3.05;1.40;;;;;;;;;;5074314;28;20033;-62
2022/08/03 12:22:36;;;;;;;3.35;1.60;;;;;;;;;;5073774;28;20197;-65
2022/08/03 12:25:08;;;;;;;3.70;1.42;;;;;;;;;;5074365;28;20024;-63
2022/08/03 12:27:34;;;;;;;3.47;1.50;;;;;;;;;;5074320;28;20063;-63
2022/08/03 12:30:01;;;;;;;4.72;1.25;;;;;;;;;;5074355;28;20477;-64
2022/08/03 12:32:28;;;;;;;5.03;1.42;;;;;;;;;;5074296;28;20103;-64
2022/08/03 12:34:58;;;;;;;4.40;1.60;;;;;;;;;;5074074;28;20029;-64
2022/08/03 12:37:24;;;;;;;4.55;1.50;;;;;;;;;;5074279;28;20465;-63
2022/08/03 12:39:51;;;;;;;4.75;1.50;;;;;;;;;;5073793;28;20154;-64
2022/08/03 12:42:16;;;;;;;3.55;1.13;;;;;;;;;;5073833;28;20373;-64
2022/08/03 12:44:42;;;;;;;3.67;1.45;;;;;;;;;;5073973;28;20035;-64
2022/08/03 12:47:09;;;;;;;4.90;1.30;;;;;;;;;;5073814;28;20447;-64
2022/08/03 12:49:48;;;;;;;2.92;1.30;;;;;;;;;;5073714;28;20102;-64
2022/08/03 12:52:16;;;;;;;2.70;1.40;;;;;;;;;;5073576;28;20033;-64
2022/08/03 12:54:43;;;;;;;4.47;1.42;;;;;;;;;;5073896;28;20040;-64
2022/08/03 12:57:11;;;;;;;2.85;1.40;;;;;;;;;;5073798;28;20074;-65
2022/08/03 12:59:44;;;;;;;4.47;1.60;;;;;;;;;;5073746;28;20389;-63
2022/08/03 13:02:24;;;;;;;5.88;1.23;;;;;;;;;;5073863;28;20472;-65
2022/08/03 13:04:51;;;;;;;2.85;1.40;;;;;;;;;;5073238;28;20040;-64
2022/08/03 13:07:18;;;;;;;3.58;1.70;;;;;;;;;;5073272;28;20461;-65
2022/08/03 13:09:54;;;;;;;7.05;1.70;;;;;;;;;;5073628;28;20036;-64
2022/08/03 13:12:24;;;;;;;5.70;1.73;;;;;;;;;;5073290;28;20497;-64
2022/08/03 13:14:53;;;;;;;5.43;1.50;;;;;;;;;;5073165;28;20025;-63
2022/08/03 13:17:19;;;;;;;6.80;1.40;;;;;;;;;;5073255;28;20182;-66
2022/08/03 13:19:46;;;;;;;4.68;1.48;;;;;;;;;;5073204;28;20469;-64
2022/08/03 13:22:12;;;;;;;4.47;1.40;;;;;;;;;;5082472;28;20048;-65
2022/08/03 13:24:38;;;;;;;7.50;1.60;;;;;;;;;;5093247;28;20544;-66
2022/08/03 13:27:06;;;;;;;2.92;1.45;;;;;;;;;;5093070;28;20111;-64
2022/08/03 13:29:32;;;;;;;4.97;1.40;;;;;;;;;;5092123;28;20090;-63
2022/08/03 13:31:57;;;;;;;3.03;1.30;;;;;;;;;;5092972;28;20040;-63
2022/08/03 13:34:23;;;;;;;3.08;1.30;;;;;;;;;;5093055;28;20051;-65
2022/08/03 13:36:48;;;;;;;4.63;1.65;;;;;;;;;;5092866;28;20103;-65
2022/08/03 13:39:15;;;;;;;3.85;1.50;;;;;;;;;;5092976;28;20039;-65
2022/08/03 13:41:40;;;;;;;3.55;1.33;;;;;;;;;;5093250;28;20464;-65
2022/08/03 13:44:06;;;;;;;2.50;1.30;;;;;;;;;;5093009;28;20115;-64
2022/08/03 13:46:31;;;;;;;3.55;1.30;;;;;;;;;;5093031;28;20036;-63
2022/08/03 13:48:57;;;;;;;3.83;1.60;;;;;;;;;;5092606;28;20023;-65
2022/08/03 13:51:22;;;;;;;7.18;1.58;;;;;;;;;;5092913;28;20032;-65
2022/08/03 13:53:49;;;;;;;5.10;1.58;;;;;;;;;;5092969;28;20019;-65
2022/08/03 13:56:15;;;;;;;4.65;1.40;;;;;;;;;;5092603;28;20028;-65
2022/08/03 13:58:40;;;;;;;7.32;1.70;;;;;;;;;;5092794;28;20030;-65
2022/08/03 14:01:06;;;;;;;6.22;1.50;;;;;;;;;;5092801;28;20384;-66
2022/08/03 14:03:31;;;;;;;4.20;1.50;;;;;;;;;;5092388;28;20456;-65
2022/08/03 14:05:57;;;;;;;3.28;1.30;;;;;;;;;;5092665;28;20023;-65
2022/08/03 14:08:22;;;;;;;8.18;1.60;;;;;;;;;;5092590;28;20032;-65
2022/08/03 14:10:48;;;;;;;7.07;1.90;;;;;;;;;;5092376;28;20024;-65
2022/08/03 14:13:14;;;;;;;2.72;1.33;;;;;;;;;;5092352;28;20027;-65
2022/08/03 14:15:41;;;;;;;4.22;1.48;;;;;;;;;;5092526;28;20555;-65
2022/08/03 14:18:07;;;;;;;2.78;1.35;;;;;;;;;;5092216;28;20024;-65
2022/08/03 14:20:33;;;;;;;2.70;1.67;;;;;;;;;;5092555;28;20052;-65
2022/08/03 14:22:59;;;;;;;4.35;1.52;;;;;;;;;;5091950;28;20433;-66
2022/08/03 14:25:24;;;;;;;3.65;1.30;;;;;;;;;;5092625;28;20102;-65
2022/08/03 14:27:50;;;;;;;3.00;1.77;;;;;;;;;;5092554;28;20031;-65
2022/08/03 14:30:16;;;;;;;5.95;1.50;;;;;;;;;;5092182;28;20472;-64
2022/08/03 14:32:41;;;;;;;4.82;1.70;;;;;;;;;;5092111;28;20473;-65
2022/08/03 14:35:07;;;;;;;3.85;1.63;;;;;;;;;;5092096;28;20036;-65
2022/08/03 14:37:33;;;;;;;2.70;1.23;;;;;;;;;;5091704;28;20072;-66
2022/08/03 14:39:59;;;;;;;3.08;1.60;;;;;;;;;;5092660;28;20065;-65
2022/08/03 14:42:24;;;;;;;4.13;1.40;;;;;;;;;;5098789;28;20106;-64
2022/08/03 14:44:50;;;;;;;2.78;0.98;;;;;;;;;;5098797;28;20442;-64
2022/08/03 14:47:16;;;;;;;5.35;1.60;;;;;;;;;;5098761;28;20442;-65
2022/08/03 14:49:42;;;;;;;1.92;1.42;;;;;;;;;;5098573;28;20020;-64
2022/08/03 14:52:08;;;;;;;2.75;1.10;;;;;;;;;;5098873;28;20028;-64
2022/08/03 14:54:33;;;;;;;3.17;1.60;;;;;;;;;;5098917;28;20035;-65
2022/08/03 14:56:59;;;;;;;8.35;2.08;;;;;;;;;;5098629;28;20024;-65